South Norfolk, Virginia
Current Conditions -  °F | °C
As of 2:34 AM on Wednesday 26 Nov 2014 (Local Time) from KORF Reporting Station
Heavy Rain Heavy Rain  
Wind Chill: 51°   Ceiling: 600
Heat Index: 51°   Visibility: 2mi
Dew Point: 49°   Wind: 16mph
Humidity: 92%   Direction: 20°NNE
Pressure: 30"   Gusts: NA
Location:  36.7998°N, 76.2734°W
Report Text: KORF 260734Z AUTO 02014KT 2SM +RA BR OVC006 11/09 A3000 RMK AO2 P0008 T01060094 TSNO
Loading
Personal Weather Stations






























Interactive Weather Map New forecast layout! Learn more

10-Day Weather Forecast

Advertisements
Track Severe Weather on mobile